Terminal Aerodrome Forecast
Issued by NWS Cleveland, OH

Home | Current Version | Previous Version | Text Only | Print | Product List | Glossary Off
Versions: 1 2 3 4 5 6 7 8 9 10 11 12

000
FTUS41 KCLE 021123
TAFYNG
TAF
KYNG 021123Z 0212/0312 VRB03KT P6SM SCT035 BKN250
     FM021500 01006KT P6SM BKN035
     FM021800 35008KT P6SM SCT045
     FM030100 01004KT P6SM SKC
     FM030500 05006KT P6SM SKC=

USA.gov is the U.S. government's official web portal to all federal, state and local government web resources and services.